createdAt,value
2023-03-27T00:00:10.327Z,61.28
2023-03-27T00:02:39.595Z,61.18
2023-03-27T00:05:08.099Z,61.10
2023-03-27T00:07:37.160Z,61.45
2023-03-27T00:10:05.005Z,61.45
2023-03-27T00:12:33.536Z,61.50
2023-03-27T00:15:01.694Z,61.63
2023-03-27T00:17:30.200Z,61.63
2023-03-27T00:19:59.395Z,61.56
2023-03-27T00:22:27.049Z,61.72
2023-03-27T00:24:54.848Z,61.88
2023-03-27T00:27:22.481Z,61.76
2023-03-27T00:29:50.148Z,62.23
2023-03-27T00:32:17.760Z,62.09
2023-03-27T00:34:45.510Z,62.07
2023-03-27T00:37:14.676Z,62.08
2023-03-27T00:39:42.572Z,62.20
2023-03-27T00:42:11.907Z,62.40
2023-03-27T00:44:39.882Z,62.36
2023-03-27T00:47:10.228Z,62.36
2023-03-27T00:49:38.203Z,62.57
2023-03-27T00:52:07.217Z,62.44
2023-03-27T00:54:40.210Z,62.49
2023-03-27T00:57:10.976Z,62.55
2023-03-27T00:59:41.854Z,62.52
2023-03-27T01:02:10.132Z,62.84
2023-03-27T01:04:38.829Z,62.65
2023-03-27T01:07:07.438Z,62.67
2023-03-27T01:09:36.557Z,62.85
2023-03-27T01:12:16.158Z,62.77
2023-03-27T01:14:51.596Z,63.07
2023-03-27T01:17:32.419Z,63.31
2023-03-27T01:20:30.308Z,63.28
2023-03-27T01:23:10.471Z,63.46
2023-03-27T01:26:00.198Z,63.63
2023-03-27T01:28:44.847Z,64.03
2023-03-27T01:31:24.633Z,63.91
2023-03-27T01:34:26.445Z,64.31
2023-03-27T01:37:11.052Z,63.82
2023-03-27T01:39:51.111Z,64.05
2023-03-27T01:42:23.470Z,64.12
2023-03-27T01:44:55.062Z,64.10
2023-03-27T01:47:33.211Z,64.43
2023-03-27T01:50:08.247Z,64.36
2023-03-27T01:52:39.986Z,64.12
2023-03-27T01:55:13.265Z,64.26
2023-03-27T01:57:50.124Z,64.16
2023-03-27T02:00:22.229Z,64.43
2023-03-27T02:02:53.798Z,64.47
2023-03-27T02:05:26.128Z,64.81
2023-03-27T02:07:55.798Z,65.10
2023-03-27T02:10:28.970Z,64.95
2023-03-27T02:12:59.528Z,65.26
2023-03-27T02:15:31.591Z,64.74
2023-03-27T02:18:05.283Z,64.96
2023-03-27T02:20:33.937Z,65.44
2023-03-27T02:23:01.970Z,65.40
2023-03-27T02:25:33.162Z,65.35
2023-03-27T02:28:14.942Z,65.27
2023-03-27T02:31:06.290Z,65.32
2023-03-27T02:33:45.103Z,65.65
2023-03-27T02:36:21.102Z,65.71
2023-03-27T02:38:53.864Z,65.99
2023-03-27T02:41:27.774Z,66.02
2023-03-27T02:44:01.960Z,66.06
2023-03-27T02:46:33.599Z,66.39
2023-03-27T02:49:04.758Z,66.36
2023-03-27T02:51:35.002Z,66.64
2023-03-27T02:54:05.575Z,66.62
2023-03-27T02:56:38.482Z,67.13
2023-03-27T02:59:08.862Z,66.90
2023-03-27T03:01:37.863Z,67.20
2023-03-27T03:04:08.622Z,67.10
2023-03-27T03:06:36.589Z,67.20
2023-03-27T03:09:06.261Z,67.42
2023-03-27T03:11:38.007Z,67.37
2023-03-27T03:14:05.840Z,67.35
2023-03-27T03:16:33.919Z,67.47
2023-03-27T03:19:01.934Z,67.54
2023-03-27T03:21:29.686Z,67.22
2023-03-27T03:23:58.622Z,67.53
2023-03-27T03:26:27.728Z,67.17
2023-03-27T03:29:00.838Z,67.37
2023-03-27T03:31:42.881Z,67.60
2023-03-27T03:34:11.580Z,67.83
2023-03-27T03:36:41.923Z,67.53
2023-03-27T03:39:11.365Z,67.63
2023-03-27T03:41:39.165Z,67.65
2023-03-27T03:44:08.401Z,67.73
2023-03-27T03:46:36.200Z,67.58
2023-03-27T03:49:05.547Z,67.77
2023-03-27T03:51:33.295Z,68.12
2023-03-27T03:54:01.463Z,68.00
2023-03-27T03:56:30.577Z,68.00
2023-03-27T03:58:58.723Z,68.41
2023-03-27T04:01:28.082Z,68.37
2023-03-27T04:03:56.393Z,68.42
2023-03-27T04:06:25.552Z,68.80
2023-03-27T04:08:53.725Z,68.70
2023-03-27T04:11:21.707Z,69.09
2023-03-27T04:13:49.463Z,69.07
2023-03-27T04:16:17.291Z,69.28
2023-03-27T04:18:46.648Z,69.12
2023-03-27T04:21:15.698Z,69.41
2023-03-27T04:23:44.924Z,69.23
2023-03-27T04:26:13.427Z,69.53
2023-03-27T04:28:41.718Z,69.64
2023-03-27T04:31:10.865Z,69.72
2023-03-27T04:33:46.450Z,69.75
2023-03-27T04:36:15.883Z,69.71
2023-03-27T04:38:44.202Z,69.54
2023-03-27T04:41:11.922Z,69.72
2023-03-27T04:43:40.205Z,70.10
2023-03-27T04:46:09.161Z,69.98
2023-03-27T04:48:38.511Z,69.99
2023-03-27T04:51:08.327Z,70.15
2023-03-27T04:53:37.973Z,69.93
2023-03-27T04:56:07.175Z,70.07
2023-03-27T04:58:37.294Z,70.39
2023-03-27T05:01:05.987Z,70.19
2023-03-27T05:03:34.769Z,70.15
2023-03-27T05:06:04.013Z,70.22
2023-03-27T05:08:31.867Z,70.46
2023-03-27T05:11:01.012Z,70.72
2023-03-27T05:13:29.345Z,70.46
2023-03-27T05:15:59.317Z,70.56
2023-03-27T05:18:27.581Z,70.25
2023-03-27T05:20:57.161Z,70.37
2023-03-27T05:23:24.994Z,70.18
2023-03-27T05:25:59.668Z,69.93
2023-03-27T05:28:29.600Z,69.92
2023-03-27T05:30:57.756Z,69.86
2023-03-27T05:33:26.750Z,69.98
2023-03-27T05:35:54.534Z,70.02
2023-03-27T05:38:22.773Z,69.82
2023-03-27T05:40:52.114Z,70.21
2023-03-27T05:43:19.924Z,69.89
2023-03-27T05:45:49.430Z,69.96
2023-03-27T05:48:17.448Z,70.43
2023-03-27T05:50:45.307Z,70.51
2023-03-27T05:53:13.068Z,70.67
2023-03-27T05:55:40.945Z,70.75
2023-03-27T05:58:10.079Z,70.72
2023-03-27T06:00:38.832Z,70.46
2023-03-27T06:03:07.986Z,70.75
2023-03-27T06:05:35.843Z,70.45
2023-03-27T06:08:03.621Z,70.46
2023-03-27T06:10:33.779Z,70.54
2023-03-27T06:13:02.768Z,70.96
2023-03-27T06:15:31.084Z,70.79
2023-03-27T06:17:58.943Z,70.53
2023-03-27T06:20:28.128Z,71.03
2023-03-27T06:22:57.487Z,71.06
2023-03-27T06:25:25.926Z,71.60
2023-03-27T06:27:54.507Z,71.26
2023-03-27T06:30:24.708Z,71.25
2023-03-27T06:32:54.272Z,71.21
2023-03-27T06:35:23.724Z,70.92
2023-03-27T06:37:53.024Z,71.31
2023-03-27T06:40:22.799Z,71.58
2023-03-27T06:42:51.980Z,71.62
2023-03-27T06:45:19.723Z,71.72
2023-03-27T06:47:54.888Z,71.77
2023-03-27T06:50:25.429Z,72.31
2023-03-27T06:52:54.671Z,72.15
2023-03-27T06:55:24.234Z,72.07
2023-03-27T06:57:53.809Z,72.02
2023-03-27T07:00:24.588Z,72.09
2023-03-27T07:02:55.752Z,72.04
2023-03-27T07:05:23.842Z,72.16
2023-03-27T07:07:51.912Z,72.21
2023-03-27T07:10:21.724Z,72.25
2023-03-27T07:12:50.717Z,72.32
2023-03-27T07:15:18.965Z,72.35
2023-03-27T07:17:54.161Z,71.91
2023-03-27T07:20:22.125Z,72.00
2023-03-27T07:22:49.791Z,71.35
2023-03-27T07:25:17.528Z,71.02
2023-03-27T07:27:46.700Z,70.81
2023-03-27T07:30:15.212Z,70.62
2023-03-27T07:32:44.717Z,70.51
2023-03-27T07:35:13.139Z,70.44
2023-03-27T07:37:40.824Z,71.13
2023-03-27T07:40:13.161Z,71.03
2023-03-27T07:42:45.298Z,70.60
2023-03-27T07:45:15.070Z,69.99
2023-03-27T07:47:43.397Z,69.92
2023-03-27T07:50:13.541Z,69.19
2023-03-27T07:52:43.605Z,69.14
2023-03-27T07:55:14.208Z,68.94
2023-03-27T07:57:59.759Z,68.77
2023-03-27T08:00:31.277Z,68.15
2023-03-27T08:03:07.307Z,68.09
2023-03-27T08:05:35.350Z,68.15
2023-03-27T08:08:03.167Z,67.80
2023-03-27T08:10:30.968Z,67.38
2023-03-27T08:12:58.679Z,66.48
2023-03-27T08:15:26.408Z,67.07
2023-03-27T08:17:56.904Z,66.76
2023-03-27T08:20:24.828Z,67.14
2023-03-27T08:22:53.004Z,66.11
2023-03-27T08:25:22.378Z,65.30
2023-03-27T08:27:50.675Z,64.27
2023-03-27T08:30:19.579Z,63.06
2023-03-27T08:32:47.286Z,62.74
2023-03-27T08:35:16.788Z,62.46
2023-03-27T08:37:44.972Z,61.68
2023-03-27T08:40:19.859Z,61.63
2023-03-27T08:42:50.323Z,60.40
2023-03-27T08:45:21.143Z,60.20
2023-03-27T08:47:52.513Z,60.22
2023-03-27T08:50:31.882Z,60.83
2023-03-27T08:52:59.623Z,59.37
2023-03-27T08:55:35.937Z,59.06
2023-03-27T08:58:03.619Z,58.10
2023-03-27T09:00:35.699Z,58.53
2023-03-27T09:03:10.890Z,57.63
2023-03-27T09:05:43.660Z,56.36
2023-03-27T09:08:17.728Z,56.14
2023-03-27T09:10:46.934Z,55.18
2023-03-27T09:13:16.458Z,55.08
2023-03-27T09:15:50.038Z,54.06
2023-03-27T09:18:21.843Z,53.61
2023-03-27T09:20:54.969Z,54.66
2023-03-27T09:23:25.864Z,53.73
2023-03-27T09:25:56.671Z,53.26
2023-03-27T09:28:28.438Z,53.49
2023-03-27T09:30:57.301Z,53.71
2023-03-27T09:33:25.578Z,53.65
2023-03-27T09:35:55.209Z,52.94
2023-03-27T09:38:27.944Z,52.60
2023-03-27T09:40:59.103Z,52.43
2023-03-27T09:43:30.291Z,52.56
2023-03-27T09:45:59.913Z,52.89
2023-03-27T09:48:32.985Z,52.97
2023-03-27T09:51:02.427Z,53.31
2023-03-27T09:53:30.098Z,55.12
2023-03-27T09:56:01.080Z,58.49
2023-03-27T09:58:34.852Z,58.78
2023-03-27T10:01:15.669Z,59.82
2023-03-27T10:03:49.134Z,60.68
2023-03-27T10:06:27.932Z,61.80
2023-03-27T10:08:56.644Z,62.58
2023-03-27T10:11:27.361Z,62.37
2023-03-27T10:13:55.688Z,62.59
2023-03-27T10:16:24.238Z,62.55
2023-03-27T10:18:55.585Z,61.44
2023-03-27T10:21:29.653Z,61.49
2023-03-27T10:24:02.586Z,60.40
2023-03-27T10:26:33.036Z,58.70
2023-03-27T10:29:05.494Z,58.80
2023-03-27T10:31:34.871Z,58.81
2023-03-27T10:34:04.037Z,58.87
2023-03-27T10:36:35.144Z,58.97
2023-03-27T10:39:07.275Z,61.04
2023-03-27T10:41:37.014Z,62.76
2023-03-27T10:44:07.022Z,65.49
2023-03-27T10:46:39.582Z,65.37
2023-03-27T10:49:17.581Z,66.00
2023-03-27T10:51:50.659Z,66.76
2023-03-27T10:54:28.990Z,67.84
2023-03-27T10:57:00.111Z,68.52
2023-03-27T11:02:22.055Z,70.86
2023-03-27T11:03:47.676Z,69.44
2023-03-27T11:04:53.044Z,70.57
2023-03-27T11:07:25.610Z,71.58
2023-03-27T11:09:58.898Z,71.91
2023-03-27T11:12:28.313Z,71.93
2023-03-27T11:15:02.010Z,72.93
2023-03-27T11:17:32.897Z,72.18
2023-03-27T11:20:07.329Z,74.19
2023-03-27T11:22:40.787Z,71.53
2023-03-27T11:25:18.412Z,71.81
2023-03-27T11:27:51.229Z,71.45
2023-03-27T11:30:29.272Z,70.38
2023-03-27T11:33:06.036Z,68.38
2023-03-27T11:35:37.615Z,67.06
2023-03-27T11:38:09.511Z,65.96
2023-03-27T11:40:39.264Z,64.29
2023-03-27T11:43:07.112Z,64.96
2023-03-27T11:45:41.466Z,65.20
2023-03-27T11:48:32.949Z,66.80
2023-03-27T11:51:02.953Z,67.42
2023-03-27T11:54:05.482Z,68.91
2023-03-27T11:56:43.561Z,70.10
2023-03-27T11:59:41.602Z,70.13
2023-03-27T12:02:22.045Z,71.97
2023-03-27T12:04:53.234Z,71.89
2023-03-27T12:07:35.801Z,72.11
2023-03-27T12:10:23.484Z,69.22
2023-03-27T12:13:28.785Z,69.53
2023-03-27T12:16:12.280Z,68.19
2023-03-27T12:21:29.337Z,67.08
2023-03-27T12:24:19.595Z,67.33
2023-03-27T12:27:07.840Z,63.01
2023-03-27T12:29:51.940Z,62.02
2023-03-27T12:32:28.265Z,60.46
2023-03-27T12:34:58.988Z,56.50
2023-03-27T12:37:31.070Z,52.87
2023-03-27T12:40:00.127Z,50.01
2023-03-27T12:42:44.575Z,50.02
2023-03-27T12:45:18.099Z,50.39
2023-03-27T12:47:47.518Z,51.33
2023-03-27T12:50:20.564Z,50.93
2023-03-27T12:52:48.283Z,50.26
2023-03-27T12:55:33.976Z,50.99
2023-03-27T12:58:05.297Z,55.61
2023-03-27T13:00:34.261Z,57.62
2023-03-27T13:03:17.284Z,59.68
2023-03-27T13:06:22.570Z,61.86
2023-03-27T13:09:10.437Z,62.66
2023-03-27T13:11:50.382Z,58.56
2023-03-27T13:14:46.646Z,57.59
2023-03-27T13:17:29.219Z,56.35
2023-03-27T13:20:07.830Z,56.91
2023-03-27T13:22:45.611Z,57.76
2023-03-27T13:25:21.738Z,55.47
2023-03-27T13:28:04.772Z,54.76
2023-03-27T13:30:48.708Z,54.60
2023-03-27T13:33:18.180Z,52.86
2023-03-27T13:36:03.198Z,52.78
2023-03-27T13:38:49.158Z,53.19
2023-03-27T13:42:06.139Z,52.45
2023-03-27T13:44:42.604Z,51.87
2023-03-27T13:47:40.482Z,52.38
2023-03-27T13:50:21.010Z,51.36
2023-03-27T13:53:13.323Z,51.32
2023-03-27T13:56:10.556Z,50.14
2023-03-27T13:59:03.674Z,49.94
2023-03-27T14:01:40.593Z,49.00
2023-03-27T14:04:38.690Z,49.85
2023-03-27T14:07:48.644Z,48.92
2023-03-27T14:10:25.337Z,50.27
2023-03-27T14:13:04.573Z,49.20
2023-03-27T14:15:56.191Z,51.82
2023-03-27T14:18:44.939Z,53.79
2023-03-27T14:21:27.563Z,54.57
2023-03-27T14:24:08.709Z,54.74
2023-03-27T14:26:38.091Z,54.31
2023-03-27T14:29:06.990Z,53.40
2023-03-27T14:31:35.861Z,52.79
2023-03-27T14:34:06.358Z,52.60
2023-03-27T14:36:36.128Z,52.05
2023-03-27T14:39:08.368Z,51.96
2023-03-27T14:41:36.146Z,51.31
2023-03-27T14:44:05.841Z,51.74
2023-03-27T14:46:34.133Z,51.71
2023-03-27T14:49:02.093Z,51.94
2023-03-27T14:51:41.839Z,50.56
2023-03-27T14:54:13.312Z,49.78
2023-03-27T14:56:47.241Z,50.71
2023-03-27T14:59:19.835Z,49.71
2023-03-27T15:01:48.441Z,50.01
2023-03-27T15:04:16.301Z,50.04
2023-03-27T15:06:50.004Z,49.08
2023-03-27T15:09:20.108Z,49.48
2023-03-27T15:11:50.010Z,49.36
2023-03-27T15:14:20.788Z,48.71
2023-03-27T15:16:52.862Z,48.81
2023-03-27T15:19:21.962Z,47.60
2023-03-27T15:21:57.012Z,48.56
2023-03-27T15:24:32.791Z,52.77
2023-03-27T15:27:01.502Z,54.34
2023-03-27T15:29:39.203Z,54.99
2023-03-27T15:32:11.136Z,53.93
2023-03-27T15:34:46.026Z,53.54
2023-03-27T15:37:18.614Z,52.19
2023-03-27T15:40:01.596Z,49.22
2023-03-27T15:42:35.077Z,48.26
2023-03-27T15:45:03.740Z,48.02
2023-03-27T15:47:32.846Z,48.25
2023-03-27T15:50:16.717Z,51.80
2023-03-27T15:52:50.832Z,50.88
2023-03-27T15:55:33.056Z,50.44
2023-03-27T16:00:16.153Z,47.59
2023-03-27T16:02:43.953Z,47.60
2023-03-27T16:05:17.408Z,47.73
2023-03-27T16:07:47.154Z,48.43
2023-03-27T16:10:15.989Z,47.81
2023-03-27T16:12:51.280Z,47.58
2023-03-27T16:15:31.498Z,46.01
2023-03-27T16:18:00.240Z,46.46
2023-03-27T16:20:40.955Z,46.93
2023-03-27T16:23:08.821Z,46.98
2023-03-27T16:25:36.720Z,51.14
2023-03-27T16:28:04.512Z,53.17
2023-03-27T16:30:36.076Z,54.57
2023-03-27T16:33:04.446Z,54.70
2023-03-27T16:35:33.901Z,54.88
2023-03-27T16:38:02.007Z,55.39
2023-03-27T16:40:29.654Z,55.73
2023-03-27T16:42:57.538Z,55.75
2023-03-27T16:45:25.497Z,55.87
2023-03-27T16:47:54.829Z,55.51
2023-03-27T16:50:26.688Z,54.88
2023-03-27T16:52:54.507Z,54.76
2023-03-27T16:55:22.183Z,54.32
2023-03-27T16:57:52.309Z,50.11
2023-03-27T17:00:20.798Z,48.55
2023-03-27T17:02:48.717Z,48.71
2023-03-27T17:05:17.917Z,48.29
2023-03-27T17:07:46.800Z,48.19
2023-03-27T17:10:14.704Z,49.06
2023-03-27T17:12:42.511Z,48.81
2023-03-27T17:15:10.692Z,48.90
2023-03-27T17:17:38.439Z,49.50
2023-03-27T17:20:07.764Z,49.86
2023-03-27T17:22:37.102Z,50.34
2023-03-27T17:25:06.058Z,50.41
2023-03-27T17:27:33.979Z,51.32
2023-03-27T17:30:01.699Z,51.91
2023-03-27T17:32:29.414Z,52.14
2023-03-27T17:34:57.222Z,52.63
2023-03-27T17:37:25.898Z,52.70
2023-03-27T17:39:55.024Z,52.81
2023-03-27T17:42:22.897Z,53.17
2023-03-27T17:44:50.725Z,53.30
2023-03-27T17:47:18.486Z,53.49
2023-03-27T17:49:46.160Z,53.28
2023-03-27T17:52:14.160Z,53.33
2023-03-27T17:54:41.942Z,53.68
2023-03-27T17:57:11.017Z,53.73
2023-03-27T17:59:38.767Z,53.99
2023-03-27T18:02:07.153Z,54.02
2023-03-27T18:04:35.286Z,53.94
2023-03-27T18:07:03.125Z,53.52
2023-03-27T18:09:31.280Z,53.42
2023-03-27T18:11:59.054Z,53.69
2023-03-27T18:14:28.354Z,53.54
2023-03-27T18:16:56.102Z,53.93
2023-03-27T18:19:24.083Z,54.11
2023-03-27T18:21:51.859Z,54.19
2023-03-27T18:24:19.603Z,54.38
2023-03-27T18:26:48.143Z,54.54
2023-03-27T18:29:15.918Z,54.37
2023-03-27T18:31:45.141Z,54.37
2023-03-27T18:34:12.913Z,54.64
2023-03-27T18:36:40.795Z,55.24
2023-03-27T18:39:08.527Z,54.74
2023-03-27T18:41:36.574Z,54.62
2023-03-27T18:44:04.362Z,54.84
2023-03-27T18:46:32.186Z,55.17
2023-03-27T18:49:10.275Z,55.17
2023-03-27T18:51:45.510Z,55.22
2023-03-27T18:54:13.668Z,55.43
2023-03-27T18:56:41.503Z,55.40
2023-03-27T18:59:10.194Z,55.60
2023-03-27T19:01:38.973Z,56.08
2023-03-27T19:04:08.540Z,56.14
2023-03-27T19:06:36.618Z,56.45
2023-03-27T19:09:05.598Z,56.78
2023-03-27T19:11:33.337Z,57.25
2023-03-27T19:14:01.006Z,57.45
2023-03-27T19:16:28.723Z,57.98
2023-03-27T19:18:56.467Z,58.16
2023-03-27T19:21:25.591Z,58.43
2023-03-27T19:23:53.341Z,58.79
2023-03-27T19:26:21.091Z,58.87
2023-03-27T19:28:48.753Z,58.97
2023-03-27T19:31:16.997Z,59.32
2023-03-27T19:33:45.722Z,59.30
2023-03-27T19:36:13.583Z,59.44
2023-03-27T19:38:42.893Z,59.26
2023-03-27T19:41:11.042Z,59.26
2023-03-27T19:43:38.848Z,59.58
2023-03-27T19:46:15.760Z,59.78
2023-03-27T19:48:47.388Z,59.60
2023-03-27T19:51:15.451Z,59.40
2023-03-27T19:53:44.538Z,59.77
2023-03-27T19:56:12.320Z,59.86
2023-03-27T19:58:40.009Z,59.78
2023-03-27T20:01:07.697Z,59.83
2023-03-27T20:03:38.602Z,59.64
2023-03-27T20:06:12.282Z,59.85
2023-03-27T20:08:44.446Z,59.82
2023-03-27T20:11:12.186Z,59.81
2023-03-27T20:13:53.237Z,60.11
2023-03-27T20:16:25.000Z,60.04
2023-03-27T20:19:03.208Z,60.11
2023-03-27T20:21:32.404Z,60.32
2023-03-27T20:24:01.550Z,60.30
2023-03-27T20:26:29.938Z,60.53
2023-03-27T20:28:57.855Z,60.87
2023-03-27T20:31:25.697Z,60.90
2023-03-27T20:33:53.506Z,61.20
2023-03-27T20:36:23.179Z,61.46
2023-03-27T20:38:52.658Z,61.28
2023-03-27T20:41:21.868Z,61.09
2023-03-27T20:43:50.923Z,61.69
2023-03-27T20:46:18.788Z,61.59
2023-03-27T20:48:54.083Z,61.90
2023-03-27T20:51:24.070Z,61.81
2023-03-27T20:53:55.837Z,61.90
2023-03-27T20:56:25.760Z,62.05
2023-03-27T20:58:53.503Z,62.01
2023-03-27T21:01:27.278Z,62.25
2023-03-27T21:03:58.455Z,62.39
2023-03-27T21:06:26.472Z,62.22
2023-03-27T21:08:54.259Z,62.44
2023-03-27T21:11:22.039Z,62.42
2023-03-27T21:13:51.507Z,62.80
2023-03-27T21:16:19.274Z,62.54
2023-03-27T21:18:47.003Z,62.72
2023-03-27T21:21:14.683Z,62.38
2023-03-27T21:23:42.404Z,62.69
2023-03-27T21:26:10.098Z,62.84
2023-03-27T21:28:37.766Z,62.76
2023-03-27T21:31:08.999Z,62.77
2023-03-27T21:33:36.842Z,62.69
2023-03-27T21:36:04.922Z,62.76
2023-03-27T21:38:32.748Z,62.83
2023-03-27T21:41:02.307Z,63.00
2023-03-27T21:43:30.239Z,63.00
2023-03-27T21:46:00.201Z,63.33
2023-03-27T21:48:29.576Z,62.86
2023-03-27T21:51:00.081Z,62.97
2023-03-27T21:53:27.774Z,63.38
2023-03-27T21:55:56.527Z,63.40
2023-03-27T21:58:24.837Z,63.36
2023-03-27T22:00:52.828Z,63.49
2023-03-27T22:03:20.614Z,63.47
2023-03-27T22:06:01.026Z,63.54
2023-03-27T22:08:38.180Z,63.77
2023-03-27T22:11:06.621Z,64.05
2023-03-27T22:13:35.901Z,64.10
2023-03-27T22:16:07.653Z,64.05
2023-03-27T22:18:35.391Z,64.05
2023-03-27T22:21:14.652Z,64.51
2023-03-27T22:23:42.538Z,64.27
2023-03-27T22:26:10.284Z,64.24
2023-03-27T22:28:38.117Z,64.19
2023-03-27T22:31:06.247Z,64.18
2023-03-27T22:33:34.002Z,64.27
2023-03-27T22:36:01.997Z,64.54
2023-03-27T22:38:31.594Z,64.37
2023-03-27T22:40:59.584Z,64.39
2023-03-27T22:43:29.610Z,64.26
2023-03-27T22:45:58.095Z,64.29
2023-03-27T22:48:25.951Z,64.28
2023-03-27T22:50:57.278Z,64.44
2023-03-27T22:53:25.769Z,64.66
2023-03-27T22:55:57.036Z,65.00
2023-03-27T22:58:25.850Z,65.01
2023-03-27T23:00:54.871Z,65.27
2023-03-27T23:03:23.213Z,65.68
2023-03-27T23:05:51.809Z,65.76
2023-03-27T23:08:20.897Z,66.06
2023-03-27T23:10:57.292Z,65.91
2023-03-27T23:13:25.482Z,66.44
2023-03-27T23:15:53.237Z,66.53
2023-03-27T23:18:23.811Z,66.61
2023-03-27T23:20:55.004Z,66.69
2023-03-27T23:23:22.905Z,66.64
2023-03-27T23:25:50.928Z,66.98
2023-03-27T23:28:20.177Z,67.20
2023-03-27T23:30:53.864Z,67.39
2023-03-27T23:33:22.652Z,67.85
2023-03-27T23:35:50.577Z,67.65
2023-03-27T23:38:18.591Z,67.39
2023-03-27T23:40:46.294Z,67.86
2023-03-27T23:43:13.948Z,67.82
2023-03-27T23:45:43.914Z,67.73
2023-03-27T23:48:11.712Z,68.08
2023-03-27T23:50:39.471Z,68.33
2023-03-27T23:53:07.258Z,68.01
2023-03-27T23:55:34.996Z,68.16
2023-03-27T23:58:02.697Z,68.44
